createdAt,value
2019-04-04T00:01:49.955Z,7.50
2019-04-04T00:04:21.801Z,7.50
2019-04-04T00:06:48.998Z,7.50
2019-04-04T00:09:17.660Z,7.40
2019-04-04T00:11:46.356Z,7.40
2019-04-04T00:14:15.033Z,7.40
2019-04-04T00:16:43.671Z,7.50
2019-04-04T00:19:12.325Z,7.50
2019-04-04T00:21:40.952Z,7.50
2019-04-04T00:24:09.721Z,7.50
2019-04-04T00:26:41.745Z,7.40
2019-04-04T00:29:09.091Z,7.40
2019-04-04T00:31:37.755Z,7.40
2019-04-04T00:34:06.459Z,7.50
2019-04-04T00:36:35.127Z,7.60
2019-04-04T00:39:05.191Z,7.60
2019-04-04T00:41:33.827Z,7.60
2019-04-04T00:44:02.984Z,7.50
2019-04-04T00:46:34.856Z,7.50
2019-04-04T00:49:04.920Z,7.40
2019-04-04T00:51:34.227Z,7.30
2019-04-04T00:54:02.936Z,7.30
2019-04-04T00:56:31.591Z,7.40
2019-04-04T00:59:00.250Z,7.40
2019-04-04T01:01:28.924Z,7.40
2019-04-04T01:04:00.294Z,7.40
2019-04-04T01:06:28.282Z,7.40
2019-04-04T01:08:56.939Z,7.40
2019-04-04T01:11:25.604Z,7.30
2019-04-04T01:13:54.233Z,7.30
2019-04-04T01:16:22.873Z,7.30
2019-04-04T01:18:51.503Z,7.40
2019-04-04T01:21:22.292Z,7.40
2019-04-04T01:23:50.750Z,7.40
2019-04-04T01:26:19.728Z,7.50
2019-04-04T01:28:48.412Z,7.40
2019-04-04T01:31:17.076Z,7.40
2019-04-04T01:33:45.704Z,7.40
2019-04-04T01:36:14.378Z,7.40
2019-04-04T01:38:43.013Z,7.30
2019-04-04T01:41:11.665Z,7.30
2019-04-04T01:43:40.980Z,7.40
2019-04-04T01:46:09.996Z,7.40
2019-04-04T01:48:38.641Z,7.50
2019-04-04T01:51:07.936Z,7.40
2019-04-04T01:53:36.912Z,7.40
2019-04-04T01:56:06.724Z,7.40
2019-04-04T01:58:35.665Z,7.40
2019-04-04T02:01:04.477Z,7.50
2019-04-04T02:03:33.131Z,7.30
2019-04-04T02:06:01.794Z,7.40
2019-04-04T02:08:31.701Z,7.40
2019-04-04T02:11:00.760Z,7.40
2019-04-04T02:13:29.415Z,7.40
2019-04-04T02:15:58.152Z,7.30
2019-04-04T02:18:26.808Z,7.30
2019-04-04T02:20:57.687Z,7.30
2019-04-04T02:23:25.877Z,7.50
2019-04-04T02:25:54.647Z,7.50
2019-04-04T02:28:23.288Z,7.50
2019-04-04T02:30:52.194Z,7.60
2019-04-04T02:33:21.176Z,7.70
2019-04-04T02:35:49.838Z,7.70
2019-04-04T02:38:18.500Z,7.80
2019-04-04T02:40:47.144Z,7.80
2019-04-04T02:43:16.234Z,7.70
2019-04-04T02:45:44.861Z,7.60
2019-04-04T02:48:13.513Z,7.70
2019-04-04T02:50:42.153Z,7.70
2019-04-04T02:53:10.825Z,7.70
2019-04-04T02:55:39.466Z,7.70
2019-04-04T02:58:08.129Z,7.60
2019-04-04T03:00:36.767Z,7.50
2019-04-04T03:03:09.166Z,7.30
2019-04-04T03:05:36.237Z,7.30
2019-04-04T03:08:05.044Z,7.50
2019-04-04T03:10:33.810Z,7.50
2019-04-04T03:13:02.518Z,7.50
2019-04-04T03:15:31.201Z,7.60
2019-04-04T03:18:03.920Z,7.70
2019-04-04T03:20:30.607Z,7.70
2019-04-04T03:23:00.641Z,7.70
2019-04-04T03:25:30.078Z,7.70
2019-04-04T03:27:59.353Z,7.80
2019-04-04T03:30:28.216Z,7.80
2019-04-04T03:32:56.874Z,7.90
2019-04-04T03:35:28.089Z,7.90
2019-04-04T03:37:56.008Z,8.00
2019-04-04T03:40:25.780Z,7.90
2019-04-04T03:42:54.652Z,8.00
2019-04-04T03:45:26.009Z,8.10
2019-04-04T03:47:53.756Z,8.10
2019-04-04T03:50:22.423Z,8.20
2019-04-04T03:52:51.072Z,8.10
2019-04-04T03:55:19.807Z,8.00
2019-04-04T03:57:48.461Z,8.10
2019-04-04T04:00:29.145Z,7.90
2019-04-04T04:02:57.779Z,7.90
2019-04-04T04:05:27.372Z,8.00
2019-04-04T04:07:56.027Z,8.10
2019-04-04T04:10:24.851Z,8.10
2019-04-04T04:12:53.494Z,8.00
2019-04-04T04:15:22.298Z,8.10
2019-04-04T04:17:50.965Z,8.00
2019-04-04T04:20:19.692Z,8.00
2019-04-04T04:22:50.803Z,8.10
2019-04-04T04:25:18.727Z,8.10
2019-04-04T04:27:48.340Z,8.10
2019-04-04T04:30:17.780Z,8.10
2019-04-04T04:32:46.426Z,8.10
2019-04-04T04:35:15.078Z,8.10
2019-04-04T04:37:43.736Z,8.00
2019-04-04T04:40:15.099Z,8.10
2019-04-04T04:42:42.857Z,8.20
2019-04-04T04:45:12.515Z,8.10
2019-04-04T04:47:41.368Z,8.10
2019-04-04T04:50:10.168Z,8.10
2019-04-04T04:52:38.968Z,8.10
2019-04-04T04:55:07.613Z,8.10
2019-04-04T04:57:37.013Z,8.00
2019-04-04T05:00:06.825Z,8.00
2019-04-04T05:02:35.474Z,8.00
2019-04-04T05:05:04.313Z,8.00
2019-04-04T05:07:34.635Z,7.90
2019-04-04T05:10:03.497Z,7.90
2019-04-04T05:12:32.444Z,7.90
2019-04-04T05:15:02.028Z,7.80
2019-04-04T05:17:30.889Z,7.90
2019-04-04T05:19:59.541Z,7.90
2019-04-04T05:22:28.183Z,7.90
2019-04-04T05:25:07.925Z,7.90
2019-04-04T05:27:27.330Z,8.00
2019-04-04T05:29:55.991Z,7.80
2019-04-04T05:32:24.660Z,7.80
2019-04-04T05:34:53.316Z,7.90
2019-04-04T05:37:22.012Z,7.70
2019-04-04T05:39:51.435Z,7.70
2019-04-04T05:42:20.817Z,7.70
2019-04-04T05:44:49.483Z,7.70
2019-04-04T05:47:18.138Z,7.80
2019-04-04T05:49:46.777Z,7.90
2019-04-04T05:52:15.724Z,8.00
2019-04-04T05:54:44.394Z,8.20
2019-04-04T05:57:13.049Z,8.10
2019-04-04T05:59:42.409Z,8.00
2019-04-04T06:02:12.053Z,8.00
2019-04-04T06:04:40.751Z,7.80
2019-04-04T06:07:09.458Z,8.00
2019-04-04T06:09:38.120Z,8.20
2019-04-04T06:12:06.763Z,8.30
2019-04-04T06:14:35.396Z,8.20
2019-04-04T06:17:05.099Z,8.20
2019-04-04T06:19:34.594Z,8.10
2019-04-04T06:22:03.258Z,7.90
2019-04-04T06:24:31.900Z,8.10
2019-04-04T06:27:00.872Z,8.20
2019-04-04T06:29:29.521Z,8.10
2019-04-04T06:32:00.490Z,8.10
2019-04-04T06:34:28.573Z,8.30
2019-04-04T06:36:57.787Z,8.30
2019-04-04T06:39:26.445Z,8.20
2019-04-04T06:41:55.090Z,8.20
2019-04-04T06:44:23.770Z,8.40
2019-04-04T06:46:53.460Z,8.30
2019-04-04T06:49:23.007Z,8.30
2019-04-04T06:51:51.648Z,8.50
2019-04-04T06:54:20.317Z,8.50
2019-04-04T06:56:49.006Z,8.40
2019-04-04T06:59:17.676Z,8.40
2019-04-04T07:01:46.338Z,8.60
2019-04-04T07:04:17.124Z,8.70
2019-04-04T07:06:45.395Z,8.60
2019-04-04T07:09:14.086Z,8.60
2019-04-04T07:11:42.764Z,8.60
2019-04-04T07:14:11.465Z,8.70
2019-04-04T07:16:40.124Z,8.70
2019-04-04T07:19:09.213Z,8.90
2019-04-04T07:21:37.902Z,8.70
2019-04-04T07:24:06.558Z,8.50
2019-04-04T07:26:35.191Z,8.60
2019-04-04T07:29:03.934Z,8.60
2019-04-04T07:31:33.533Z,8.50
2019-04-04T07:34:03.011Z,8.30
2019-04-04T07:36:34.628Z,8.50
2019-04-04T07:39:04.569Z,8.60
2019-04-04T07:41:33.239Z,8.70
2019-04-04T07:44:01.904Z,8.80
2019-04-04T07:46:30.553Z,8.90
2019-04-04T07:48:59.222Z,8.90
2019-04-04T07:51:28.062Z,9.00
2019-04-04T07:53:58.310Z,9.00
2019-04-04T07:56:27.040Z,9.10
2019-04-04T07:58:56.168Z,9.10
2019-04-04T08:01:24.796Z,9.20
2019-04-04T08:03:53.482Z,9.30
2019-04-04T08:06:22.203Z,9.00
2019-04-04T08:08:50.888Z,8.80
2019-04-04T08:11:19.536Z,8.70
2019-04-04T08:13:48.235Z,8.70
2019-04-04T08:16:16.950Z,8.50
2019-04-04T08:18:45.616Z,8.50
2019-04-04T08:21:14.622Z,8.60
2019-04-04T08:23:43.284Z,8.80
2019-04-04T08:26:12.130Z,8.60
2019-04-04T08:28:40.940Z,8.90
2019-04-04T08:31:09.914Z,8.80
2019-04-04T08:33:40.081Z,8.70
2019-04-04T08:36:08.973Z,9.00
2019-04-04T08:38:37.816Z,8.90
2019-04-04T08:41:06.472Z,8.90
2019-04-04T08:43:35.380Z,8.90
2019-04-04T08:46:04.124Z,9.00
2019-04-04T08:48:32.756Z,8.90
2019-04-04T08:51:01.428Z,8.70
2019-04-04T08:53:39.755Z,9.10
2019-04-04T08:56:00.519Z,9.40
2019-04-04T08:58:29.190Z,9.70
2019-04-04T09:00:57.910Z,9.80
2019-04-04T09:03:26.535Z,9.70
2019-04-04T09:05:55.208Z,9.70
2019-04-04T09:08:24.118Z,9.80
2019-04-04T09:10:52.935Z,9.90
2019-04-04T09:13:21.567Z,10.00
2019-04-04T09:15:50.247Z,9.80
2019-04-04T09:18:18.952Z,9.70
2019-04-04T09:20:47.719Z,9.70
2019-04-04T09:23:16.392Z,9.30
2019-04-04T09:25:45.247Z,9.20
2019-04-04T09:28:14.029Z,9.30
2019-04-04T09:30:42.702Z,9.40
2019-04-04T09:33:11.429Z,9.50
2019-04-04T09:35:40.224Z,9.30
2019-04-04T09:38:08.912Z,9.30
2019-04-04T09:40:37.574Z,9.50
2019-04-04T09:43:06.251Z,9.70
2019-04-04T09:45:35.069Z,9.80
2019-04-04T09:48:03.745Z,10.10
2019-04-04T09:50:32.399Z,9.90
2019-04-04T09:53:01.421Z,9.70
2019-04-04T09:55:30.097Z,9.70
2019-04-04T09:57:58.738Z,9.90
2019-04-04T10:00:27.525Z,9.60
2019-04-04T10:02:56.280Z,9.80
2019-04-04T10:05:24.926Z,9.60
2019-04-04T10:07:53.611Z,9.40
2019-04-04T10:10:22.252Z,9.30
2019-04-04T10:12:50.975Z,9.40
2019-04-04T10:15:19.762Z,9.30
2019-04-04T10:17:49.522Z,9.40
2019-04-04T10:20:18.560Z,9.40
2019-04-04T10:22:47.203Z,9.30
2019-04-04T10:25:15.855Z,9.50
2019-04-04T10:27:44.545Z,9.40
2019-04-04T10:30:13.646Z,9.40
2019-04-04T10:32:42.365Z,9.50
2019-04-04T10:35:30.703Z,9.30
2019-04-04T10:38:11.999Z,9.40
2019-04-04T10:40:52.698Z,9.40
2019-04-04T10:43:34.041Z,9.50
2019-04-04T10:46:15.124Z,9.50
2019-04-04T10:48:55.602Z,9.30
2019-04-04T10:51:36.225Z,9.50
2019-04-04T10:54:17.347Z,9.60
2019-04-04T10:56:58.155Z,9.90
2019-04-04T10:59:38.856Z,10.10
2019-04-04T11:02:19.216Z,9.70
2019-04-04T11:04:59.933Z,9.80
2019-04-04T11:07:40.620Z,9.80
2019-04-04T11:10:21.213Z,9.70
2019-04-04T11:13:03.018Z,9.70
2019-04-04T11:15:43.444Z,10.00
2019-04-04T11:18:24.220Z,10.00
2019-04-04T11:21:05.012Z,9.90
2019-04-04T11:23:45.817Z,10.00
2019-04-04T11:26:26.547Z,10.30
2019-04-04T11:29:07.270Z,10.10
2019-04-04T11:31:48.136Z,10.10
2019-04-04T11:34:28.748Z,10.10
2019-04-04T11:37:09.467Z,9.80
2019-04-04T11:39:54.764Z,9.80
2019-04-04T11:45:14.530Z,9.90
2019-04-04T11:47:55.156Z,10.20
2019-04-04T11:50:35.727Z,10.20
2019-04-04T11:53:16.599Z,10.50
2019-04-04T11:55:57.854Z,10.60
2019-04-04T11:58:38.500Z,10.60
2019-04-04T12:01:19.508Z,10.70
2019-04-04T12:04:00.553Z,10.50
2019-04-04T12:06:41.045Z,10.50
2019-04-04T12:09:21.679Z,10.30
2019-04-04T12:12:02.368Z,10.20
2019-04-04T12:14:42.886Z,10.10
2019-04-04T12:17:23.594Z,10.10
2019-04-04T12:20:04.383Z,10.00
2019-04-04T12:22:45.225Z,10.00
2019-04-04T12:25:25.990Z,10.10
2019-04-04T12:28:06.497Z,10.20
2019-04-04T12:30:47.233Z,10.10
2019-04-04T12:33:27.915Z,9.90
2019-04-04T12:36:08.577Z,9.80
2019-04-04T12:38:49.493Z,9.90
2019-04-04T12:41:30.132Z,10.00
2019-04-04T12:44:10.852Z,10.10
2019-04-04T12:46:51.782Z,10.00
2019-04-04T12:49:32.439Z,10.00
2019-04-04T12:52:13.011Z,9.90
2019-04-04T12:54:53.721Z,10.00
2019-04-04T12:57:34.595Z,10.20
2019-04-04T13:00:15.275Z,10.10
2019-04-04T13:02:55.818Z,9.80
2019-04-04T13:05:36.329Z,9.90
2019-04-04T13:08:17.173Z,10.10
2019-04-04T13:10:57.891Z,10.30
2019-04-04T13:13:38.691Z,10.10
2019-04-04T13:16:19.379Z,10.10
2019-04-04T13:19:00.011Z,10.10
2019-04-04T13:21:40.860Z,9.80
2019-04-04T13:24:21.390Z,9.90
2019-04-04T13:27:02.110Z,10.10
2019-04-04T13:29:42.765Z,10.30
2019-04-04T13:32:23.705Z,10.20
2019-04-04T13:35:05.687Z,10.20
2019-04-04T13:37:46.982Z,10.00
2019-04-04T13:40:27.593Z,10.00
2019-04-04T13:43:08.307Z,10.10
2019-04-04T13:45:49.099Z,10.20
2019-04-04T13:48:29.724Z,10.30
2019-04-04T13:51:12.114Z,10.20
2019-04-04T13:53:53.016Z,10.10
2019-04-04T13:56:33.393Z,10.20
2019-04-04T13:59:14.114Z,10.40
2019-04-04T14:01:54.925Z,10.10
2019-04-04T14:04:38.994Z,10.10
2019-04-04T14:07:19.520Z,10.00
2019-04-04T14:10:00.359Z,10.10
2019-04-04T14:12:40.752Z,9.90
2019-04-04T14:15:21.608Z,10.00
2019-04-04T14:18:02.380Z,10.00
2019-04-04T14:20:42.704Z,9.90
2019-04-04T14:23:23.341Z,10.00
2019-04-04T14:26:03.864Z,10.00
2019-04-04T14:28:44.900Z,9.90
2019-04-04T14:31:25.642Z,9.90
2019-04-04T14:34:06.392Z,10.10
2019-04-04T14:36:47.169Z,10.10
2019-04-04T14:39:27.927Z,10.00
2019-04-04T14:42:08.692Z,10.10
2019-04-04T14:44:49.516Z,10.20
2019-04-04T14:47:32.974Z,10.10
2019-04-04T14:52:55.961Z,10.10
2019-04-04T14:55:36.850Z,10.20
2019-04-04T14:58:18.115Z,10.00
2019-04-04T15:00:58.616Z,9.90
2019-04-04T15:03:42.005Z,9.90
2019-04-04T15:06:21.727Z,10.10
2019-04-04T15:09:02.552Z,10.10
2019-04-04T15:11:43.658Z,10.10
2019-04-04T15:14:24.889Z,10.10
2019-04-04T15:17:05.362Z,10.10
2019-04-04T15:19:46.038Z,10.00
2019-04-04T15:22:26.786Z,10.20
2019-04-04T15:25:07.685Z,10.30
2019-04-04T15:27:48.343Z,10.30
2019-04-04T15:30:28.865Z,10.10
2019-04-04T15:35:51.684Z,10.00
2019-04-04T15:41:21.776Z,10.20
2019-04-04T15:44:13.475Z,10.20
2019-04-04T15:47:01.461Z,10.30
2019-04-04T15:49:49.394Z,10.10
2019-04-04T15:52:37.332Z,10.10
2019-04-04T15:55:25.262Z,10.20
2019-04-04T16:01:20.527Z,10.20
2019-04-04T16:04:08.457Z,10.40
2019-04-04T16:06:56.404Z,10.40
2019-04-04T16:09:44.342Z,10.50
2019-04-04T16:12:32.604Z,10.40
2019-04-04T16:15:20.537Z,10.50
2019-04-04T16:18:08.528Z,10.30
2019-04-04T16:20:56.469Z,10.30
2019-04-04T16:23:44.383Z,10.30
2019-04-04T16:26:32.349Z,10.40
2019-04-04T16:29:20.280Z,10.40
2019-04-04T16:32:08.297Z,10.40
2019-04-04T16:34:56.225Z,10.40
2019-04-04T16:37:44.174Z,10.40
2019-04-04T16:40:32.178Z,10.40
2019-04-04T16:43:20.328Z,10.10
2019-04-04T16:46:08.260Z,10.10
2019-04-04T16:48:56.191Z,10.20
2019-04-04T16:51:44.137Z,10.30
2019-04-04T16:54:32.044Z,10.20
2019-04-04T16:57:20.112Z,10.20
2019-04-04T17:00:08.605Z,10.20
2019-04-04T17:02:37.303Z,10.20
2019-04-04T17:05:06.447Z,10.20
2019-04-04T17:07:35.777Z,10.10
2019-04-04T17:10:05.842Z,10.00
2019-04-04T17:12:34.784Z,10.00
2019-04-04T17:15:03.777Z,10.00
2019-04-04T17:17:32.509Z,10.00
2019-04-04T17:20:01.234Z,10.00
2019-04-04T17:22:29.928Z,10.00
2019-04-04T17:24:58.611Z,10.00
2019-04-04T17:27:27.405Z,10.00
2019-04-04T17:29:56.060Z,9.90
2019-04-04T17:32:25.030Z,9.80
2019-04-04T17:34:53.794Z,9.90
2019-04-04T17:37:22.568Z,9.90
2019-04-04T17:39:51.347Z,9.90
2019-04-04T17:42:29.071Z,9.90
2019-04-04T17:44:50.515Z,9.80
2019-04-04T17:47:19.227Z,9.80
2019-04-04T17:49:47.961Z,9.80
2019-04-04T17:52:17.218Z,9.80
2019-04-04T17:54:46.229Z,9.80
2019-04-04T17:57:15.559Z,9.80
2019-04-04T17:59:44.959Z,9.70
2019-04-04T18:02:13.716Z,9.80
2019-04-04T18:04:48.290Z,9.70
2019-04-04T18:07:12.798Z,9.70
2019-04-04T18:09:41.643Z,9.70
2019-04-04T18:12:10.399Z,9.60
2019-04-04T18:14:39.096Z,9.70
2019-04-04T18:17:08.061Z,9.70
2019-04-04T18:19:36.688Z,9.60
2019-04-04T18:22:06.633Z,9.70
2019-04-04T18:24:35.406Z,9.70
2019-04-04T18:27:05.399Z,9.80
2019-04-04T18:29:34.046Z,9.90
2019-04-04T18:32:02.712Z,9.80
2019-04-04T18:34:31.430Z,9.70
2019-04-04T18:37:00.154Z,9.80
2019-04-04T18:39:28.912Z,9.80
2019-04-04T18:41:57.701Z,9.80
2019-04-04T18:44:26.557Z,9.80
2019-04-04T18:46:55.196Z,9.80
2019-04-04T18:49:23.879Z,9.70
2019-04-04T18:51:52.568Z,9.70
2019-04-04T18:54:21.252Z,9.70
2019-04-04T18:56:49.928Z,9.70
2019-04-04T18:59:18.759Z,9.60
2019-04-04T19:01:47.456Z,9.70
2019-04-04T19:04:16.153Z,9.70
2019-04-04T19:06:44.952Z,9.60
2019-04-04T19:09:15.404Z,9.60
2019-04-04T19:11:44.456Z,9.60
2019-04-04T19:14:13.228Z,9.60
2019-04-04T19:16:42.017Z,9.70
2019-04-04T19:19:10.685Z,9.60
2019-04-04T19:21:39.342Z,9.60
2019-04-04T19:24:08.290Z,9.60
2019-04-04T19:26:37.196Z,9.50
2019-04-04T19:29:06.076Z,9.60
2019-04-04T19:31:34.821Z,9.60
2019-04-04T19:34:03.544Z,9.50
2019-04-04T19:36:32.233Z,9.50
2019-04-04T19:39:00.980Z,9.40
2019-04-04T19:41:29.668Z,9.40
2019-04-04T19:43:58.325Z,9.40
2019-04-04T19:46:36.581Z,9.40
2019-04-04T19:48:57.418Z,9.40
2019-04-04T19:51:26.089Z,9.40
2019-04-04T19:53:54.816Z,9.40
2019-04-04T19:56:24.038Z,9.20
2019-04-04T19:58:52.993Z,9.20
2019-04-04T20:01:21.654Z,9.20
2019-04-04T20:03:50.663Z,9.30
2019-04-04T20:06:19.548Z,9.20
2019-04-04T20:08:52.065Z,9.10
2019-04-04T20:11:18.947Z,9.00
2019-04-04T20:13:47.623Z,9.10
2019-04-04T20:16:16.620Z,9.10
2019-04-04T20:18:45.249Z,9.10
2019-04-04T20:21:13.960Z,9.10
2019-04-04T20:23:42.648Z,9.10
2019-04-04T20:26:11.305Z,9.20
2019-04-04T20:28:40.292Z,9.20
2019-04-04T20:31:09.137Z,9.00
2019-04-04T20:33:37.769Z,9.00
2019-04-04T20:36:06.550Z,9.00
2019-04-04T20:38:35.241Z,9.10
2019-04-04T20:41:04.302Z,9.10
2019-04-04T20:43:42.759Z,9.10
2019-04-04T20:46:03.531Z,9.10
2019-04-04T20:48:32.696Z,9.10
2019-04-04T20:51:01.745Z,9.10
2019-04-04T20:53:30.371Z,9.10
2019-04-04T20:55:59.074Z,9.10
2019-04-04T20:58:27.741Z,9.00
2019-04-04T21:00:56.504Z,9.00
2019-04-04T21:03:25.192Z,9.10
2019-04-04T21:05:53.844Z,9.10
2019-04-04T21:08:22.549Z,9.00
2019-04-04T21:10:51.291Z,9.00
2019-04-04T21:13:19.993Z,8.90
2019-04-04T21:15:48.712Z,8.90
2019-04-04T21:18:17.759Z,9.00
2019-04-04T21:20:46.733Z,8.90
2019-04-04T21:23:15.746Z,8.90
2019-04-04T21:25:44.378Z,8.90
2019-04-04T21:28:13.036Z,8.90
2019-04-04T21:30:41.681Z,9.00
2019-04-04T21:33:10.350Z,9.00
2019-04-04T21:35:38.997Z,9.00
2019-04-04T21:38:07.669Z,9.00
2019-04-04T21:40:36.573Z,9.10
2019-04-04T21:43:05.318Z,9.10
2019-04-04T21:45:34.167Z,9.00
2019-04-04T21:48:03.097Z,8.90
2019-04-04T21:50:31.865Z,8.90
2019-04-04T21:53:00.528Z,8.90
2019-04-04T21:55:29.178Z,8.90
2019-04-04T21:57:57.896Z,8.90
2019-04-04T22:00:29.108Z,8.90
2019-04-04T22:02:57.824Z,8.90
2019-04-04T22:05:26.532Z,8.90
2019-04-04T22:07:55.198Z,8.90
2019-04-04T22:10:24.175Z,8.90
2019-04-04T22:12:52.865Z,8.80
2019-04-04T22:15:21.775Z,8.80
2019-04-04T22:17:50.445Z,8.80
2019-04-04T22:20:19.185Z,8.80
2019-04-04T22:22:48.252Z,8.80
2019-04-04T22:25:16.988Z,8.80
2019-04-04T22:27:45.723Z,8.80
2019-04-04T22:30:14.861Z,8.80
2019-04-04T22:32:43.528Z,8.80
2019-04-04T22:35:12.371Z,8.80
2019-04-04T22:37:41.030Z,8.80
2019-04-04T22:40:09.930Z,8.70
2019-04-04T22:42:38.576Z,8.80
2019-04-04T22:45:07.881Z,8.70
2019-04-04T22:47:36.519Z,8.70
2019-04-04T22:50:05.476Z,8.60
2019-04-04T22:52:34.147Z,8.60
2019-04-04T22:55:02.830Z,8.60
2019-04-04T22:57:31.468Z,8.60
2019-04-04T23:00:00.169Z,8.70
2019-04-04T23:02:28.859Z,8.60
2019-04-04T23:04:57.769Z,8.60
2019-04-04T23:07:26.423Z,8.60
2019-04-04T23:09:55.092Z,8.60
2019-04-04T23:12:23.740Z,8.60
2019-04-04T23:14:52.385Z,8.60
2019-04-04T23:17:21.099Z,8.60
2019-04-04T23:19:49.749Z,8.60
2019-04-04T23:22:18.568Z,8.60
2019-04-04T23:24:47.220Z,8.60
2019-04-04T23:27:15.876Z,8.50
2019-04-04T23:29:44.525Z,8.60
2019-04-04T23:32:13.166Z,8.60
2019-04-04T23:34:41.828Z,8.50
2019-04-04T23:37:10.466Z,8.40
2019-04-04T23:39:39.135Z,8.40
2019-04-04T23:42:07.763Z,8.30
2019-04-04T23:44:36.504Z,8.30
2019-04-04T23:47:05.162Z,8.40
2019-04-04T23:49:33.932Z,8.30
2019-04-04T23:52:02.607Z,8.30
2019-04-04T23:54:31.280Z,8.40
2019-04-04T23:56:59.943Z,8.40
2019-04-04T23:59:28.654Z,8.30
